createdAt,value
2022-08-27T00:01:20.888Z,24.83
2022-08-27T00:03:47.766Z,22.60
2022-08-27T00:06:17.019Z,23.43
2022-08-27T00:08:46.122Z,22.77
2022-08-27T00:11:13.556Z,22.97
2022-08-27T00:13:41.202Z,23.70
2022-08-27T00:16:10.488Z,23.67
2022-08-27T00:18:39.083Z,23.00
2022-08-27T00:21:07.042Z,26.13
2022-08-27T00:23:35.360Z,21.63
2022-08-27T00:26:02.971Z,25.63
2022-08-27T00:28:30.909Z,23.03
2022-08-27T00:30:58.141Z,21.10
2022-08-27T00:33:26.318Z,20.47
2022-08-27T00:35:53.899Z,26.50
2022-08-27T00:38:22.726Z,23.20
2022-08-27T00:40:51.192Z,21.50
2022-08-27T00:43:50.554Z,21.73
2022-08-27T00:46:35.164Z,23.10
2022-08-27T00:49:08.046Z,21.13
2022-08-27T00:51:37.042Z,23.00
2022-08-27T00:54:05.866Z,21.07
2022-08-27T00:56:38.739Z,22.07
2022-08-27T00:59:06.233Z,22.37
2022-08-27T01:01:35.801Z,22.87
2022-08-27T01:04:05.933Z,20.23
2022-08-27T01:06:37.253Z,21.30
2022-08-27T01:09:11.842Z,22.40
2022-08-27T01:11:39.072Z,24.07
2022-08-27T01:14:06.373Z,22.07
2022-08-27T01:16:39.739Z,22.83
2022-08-27T01:19:14.495Z,23.80
2022-08-27T01:21:51.940Z,26.67
2022-08-27T01:24:38.470Z,24.03
2022-08-27T01:27:13.424Z,24.93
2022-08-27T01:29:42.428Z,25.27
2022-08-27T01:32:19.131Z,25.30
2022-08-27T01:34:46.888Z,22.87
2022-08-27T01:37:21.243Z,23.57
2022-08-27T01:39:52.855Z,23.30
2022-08-27T01:42:28.638Z,23.80
2022-08-27T01:44:59.137Z,23.67
2022-08-27T01:47:30.822Z,29.27
2022-08-27T01:49:59.213Z,27.70
2022-08-27T01:52:28.866Z,29.07
2022-08-27T01:54:56.105Z,29.07
2022-08-27T01:57:26.013Z,25.30
2022-08-27T01:59:54.815Z,24.97
2022-08-27T02:02:22.640Z,25.23
2022-08-27T02:04:51.656Z,29.83
2022-08-27T02:07:19.308Z,26.00
2022-08-27T02:09:46.340Z,25.07
2022-08-27T02:12:13.580Z,28.03
2022-08-27T02:14:40.574Z,28.73
2022-08-27T02:17:07.420Z,26.47
2022-08-27T02:19:34.389Z,28.30
2022-08-27T02:22:01.382Z,25.30
2022-08-27T02:24:29.050Z,24.67
2022-08-27T02:26:56.647Z,23.97
2022-08-27T02:29:24.660Z,24.77
2022-08-27T02:31:51.623Z,24.83
2022-08-27T02:34:18.973Z,25.80
2022-08-27T02:36:45.932Z,26.80
2022-08-27T02:39:13.166Z,26.43
2022-08-27T02:41:39.996Z,27.07
2022-08-27T02:44:10.566Z,27.30
2022-08-27T02:46:41.631Z,27.83
2022-08-27T02:49:09.687Z,26.70
2022-08-27T02:51:36.943Z,24.57
2022-08-27T02:54:03.931Z,25.93
2022-08-27T02:56:30.807Z,25.87
2022-08-27T02:58:59.262Z,25.90
2022-08-27T03:01:26.549Z,26.03
2022-08-27T03:03:53.510Z,27.80
2022-08-27T03:06:20.454Z,27.33
2022-08-27T03:08:52.688Z,26.97
2022-08-27T03:11:24.057Z,32.97
2022-08-27T03:13:52.227Z,27.00
2022-08-27T03:16:19.418Z,27.93
2022-08-27T03:18:46.384Z,28.17
2022-08-27T03:21:19.394Z,29.07
2022-08-27T03:23:46.581Z,28.77
2022-08-27T03:26:13.515Z,28.57
2022-08-27T03:28:40.932Z,32.30
2022-08-27T03:31:15.234Z,28.63
2022-08-27T03:33:43.417Z,29.73
2022-08-27T03:36:10.311Z,29.13
2022-08-27T03:38:38.066Z,32.13
2022-08-27T03:41:06.135Z,29.17
2022-08-27T03:43:33.029Z,30.70
2022-08-27T03:46:01.979Z,32.03
2022-08-27T03:48:32.158Z,30.00
2022-08-27T03:50:59.251Z,30.50
2022-08-27T03:53:26.274Z,29.87
2022-08-27T03:55:53.209Z,29.07
2022-08-27T03:58:20.231Z,28.63
2022-08-27T04:00:47.397Z,29.87
2022-08-27T04:03:14.918Z,29.87
2022-08-27T04:05:44.744Z,32.47
2022-08-27T04:08:13.409Z,31.53
2022-08-27T04:10:43.314Z,33.00
2022-08-27T04:13:10.549Z,31.37
2022-08-27T04:15:41.680Z,30.63
2022-08-27T04:18:08.678Z,29.87
2022-08-27T04:20:36.379Z,34.53
2022-08-27T04:23:04.437Z,31.03
2022-08-27T04:25:31.867Z,29.90
2022-08-27T04:27:58.980Z,32.70
2022-08-27T04:30:25.966Z,30.33
2022-08-27T04:32:52.827Z,28.67
2022-08-27T04:35:19.677Z,28.67
2022-08-27T04:37:46.610Z,28.93
2022-08-27T04:40:13.581Z,30.30
2022-08-27T04:42:40.800Z,27.80
2022-08-27T04:45:08.219Z,27.40
2022-08-27T04:47:35.952Z,27.37
2022-08-27T04:50:05.749Z,25.90
2022-08-27T04:52:32.937Z,26.10
2022-08-27T04:55:00.069Z,25.53
2022-08-27T04:57:27.819Z,23.67
2022-08-27T04:59:54.927Z,24.47
2022-08-27T05:02:21.927Z,27.03
2022-08-27T05:04:48.912Z,23.17
2022-08-27T05:07:15.826Z,23.33
2022-08-27T05:09:42.662Z,23.07
2022-08-27T05:12:09.742Z,23.33
2022-08-27T05:14:36.842Z,21.83
2022-08-27T05:17:03.848Z,22.17
2022-08-27T05:19:31.264Z,22.17
2022-08-27T05:21:58.346Z,23.43
2022-08-27T05:24:25.213Z,22.30
2022-08-27T05:26:52.397Z,23.90
2022-08-27T05:29:19.529Z,21.97
2022-08-27T05:31:47.901Z,25.47
2022-08-27T05:34:18.602Z,25.07
2022-08-27T05:36:53.517Z,25.80
2022-08-27T05:39:20.344Z,24.90
2022-08-27T05:41:47.208Z,26.23
2022-08-27T05:47:03.499Z,25.13
2022-08-27T05:49:31.750Z,24.17
2022-08-27T05:51:58.809Z,23.33
2022-08-27T05:54:25.770Z,24.77
2022-08-27T05:56:52.658Z,23.70
2022-08-27T05:59:37.993Z,21.47
2022-08-27T06:02:06.201Z,21.63
2022-08-27T06:04:33.766Z,21.90
2022-08-27T06:07:00.869Z,20.70
2022-08-27T06:09:30.178Z,20.80
2022-08-27T06:11:58.362Z,21.27
2022-08-27T06:14:26.215Z,20.97
2022-08-27T06:16:53.395Z,20.97
2022-08-27T06:19:20.639Z,20.73
2022-08-27T06:22:00.865Z,20.60
2022-08-27T06:24:35.820Z,21.37
2022-08-27T06:27:03.315Z,20.83
2022-08-27T06:29:30.202Z,20.80
2022-08-27T06:31:57.021Z,20.17
2022-08-27T06:34:23.888Z,19.90
2022-08-27T06:36:50.876Z,20.30
2022-08-27T06:39:17.766Z,20.43
2022-08-27T06:41:45.586Z,20.37
2022-08-27T06:44:13.935Z,20.00
2022-08-27T06:46:41.894Z,20.50
2022-08-27T06:49:09.833Z,22.53
2022-08-27T06:51:38.530Z,19.70
2022-08-27T06:54:12.136Z,19.77
2022-08-27T06:56:39.926Z,19.77
2022-08-27T06:59:11.631Z,19.67
2022-08-27T07:01:41.871Z,20.77
2022-08-27T07:04:12.876Z,18.63
2022-08-27T07:06:40.726Z,19.83
2022-08-27T07:09:08.976Z,18.67
2022-08-27T07:11:36.418Z,19.13
2022-08-27T07:14:03.272Z,19.23
2022-08-27T07:16:30.734Z,19.60
2022-08-27T07:19:03.659Z,19.40
2022-08-27T07:21:33.815Z,17.67
2022-08-27T07:24:04.808Z,18.90
2022-08-27T07:26:35.825Z,16.60
2022-08-27T07:29:04.930Z,18.57
2022-08-27T07:31:32.517Z,17.63
2022-08-27T07:33:59.328Z,18.43
2022-08-27T07:36:26.150Z,18.73
2022-08-27T07:38:59.157Z,18.50
2022-08-27T07:41:30.731Z,20.30
2022-08-27T07:44:18.589Z,20.43
2022-08-27T07:46:48.258Z,20.50
2022-08-27T07:49:17.212Z,19.87
2022-08-27T07:51:44.694Z,19.90
2022-08-27T07:54:11.801Z,18.13
2022-08-27T07:56:38.646Z,20.00
2022-08-27T07:59:05.470Z,19.27
2022-08-27T08:01:32.321Z,19.17
2022-08-27T08:03:59.536Z,18.57
2022-08-27T08:06:26.963Z,18.60
2022-08-27T08:08:54.013Z,19.43
2022-08-27T08:11:20.935Z,17.30
2022-08-27T08:13:48.139Z,17.63
2022-08-27T08:16:15.246Z,15.20
2022-08-27T08:18:42.484Z,15.97
2022-08-27T08:21:12.816Z,15.57
2022-08-27T08:23:41.075Z,15.43
2022-08-27T08:26:09.072Z,15.20
2022-08-27T08:28:37.063Z,15.20
2022-08-27T08:31:05.109Z,15.20
2022-08-27T08:33:33.059Z,15.23
2022-08-27T08:36:11.877Z,14.50
2022-08-27T08:38:39.466Z,13.83
2022-08-27T08:41:19.618Z,14.90
2022-08-27T08:43:51.530Z,14.67
2022-08-27T08:46:33.939Z,14.10
2022-08-27T08:49:17.049Z,13.17
2022-08-27T08:51:46.381Z,13.80
2022-08-27T08:54:21.088Z,12.90
2022-08-27T08:56:59.613Z,14.00
2022-08-27T08:59:35.402Z,13.07
2022-08-27T09:02:02.434Z,12.27
2022-08-27T09:04:30.016Z,12.40
2022-08-27T09:07:15.136Z,11.70
2022-08-27T09:10:10.619Z,12.23
2022-08-27T09:12:37.440Z,12.97
2022-08-27T09:15:21.978Z,12.13
2022-08-27T09:17:50.221Z,12.23
2022-08-27T09:20:21.310Z,13.17
2022-08-27T09:23:06.382Z,12.40
2022-08-27T09:25:36.541Z,12.90
2022-08-27T09:28:30.247Z,14.07
2022-08-27T09:31:05.116Z,13.87
2022-08-27T09:33:53.631Z,13.70
2022-08-27T09:36:23.576Z,13.17
2022-08-27T09:39:02.203Z,13.13
2022-08-27T09:41:49.372Z,13.73
2022-08-27T09:44:20.887Z,12.57
2022-08-27T09:47:02.924Z,12.23
2022-08-27T09:49:31.011Z,12.00
2022-08-27T09:51:59.028Z,12.57
2022-08-27T09:54:46.556Z,11.87
2022-08-27T09:57:28.779Z,12.30
2022-08-27T09:59:58.033Z,11.77
2022-08-27T10:02:26.304Z,12.33
2022-08-27T10:05:01.292Z,11.97
2022-08-27T10:07:38.565Z,12.03
2022-08-27T10:10:28.508Z,11.60
2022-08-27T10:12:55.316Z,12.30
2022-08-27T10:15:24.352Z,12.57
2022-08-27T10:18:02.593Z,13.03
2022-08-27T10:20:32.637Z,12.60
2022-08-27T10:23:44.567Z,12.83
2022-08-27T10:26:14.092Z,11.60
2022-08-27T10:28:53.195Z,11.30
2022-08-27T10:31:41.339Z,11.97
2022-08-27T10:34:43.597Z,11.53
2022-08-27T10:37:17.848Z,11.57
2022-08-27T10:39:54.657Z,10.70
2022-08-27T10:42:26.339Z,9.57
2022-08-27T10:45:42.670Z,9.77
2022-08-27T10:48:40.917Z,9.97
2022-08-27T10:51:16.283Z,9.43
2022-08-27T10:54:07.787Z,9.90
2022-08-27T10:56:40.413Z,8.27
2022-08-27T10:59:37.091Z,8.57
2022-08-27T11:02:32.254Z,8.10
2022-08-27T11:05:22.054Z,7.80
2022-08-27T11:08:17.352Z,7.37
2022-08-27T11:11:51.391Z,7.57
2022-08-27T11:14:01.381Z,7.13
2022-08-27T11:16:45.798Z,7.43
2022-08-27T11:19:45.017Z,7.93
2022-08-27T11:22:26.461Z,7.90
2022-08-27T11:25:14.137Z,7.43
2022-08-27T11:27:42.647Z,7.87
2022-08-27T11:30:48.186Z,7.33
2022-08-27T11:33:18.795Z,7.00
2022-08-27T11:35:45.553Z,7.17
2022-08-27T11:38:31.109Z,7.50
2022-08-27T11:41:19.599Z,7.63
2022-08-27T11:43:47.453Z,7.97
2022-08-27T11:46:25.082Z,7.40
2022-08-27T11:49:01.718Z,7.43
2022-08-27T11:51:34.049Z,7.30
2022-08-27T11:54:07.643Z,7.13
2022-08-27T11:56:41.359Z,7.00
2022-08-27T11:59:21.722Z,6.87
2022-08-27T12:01:53.955Z,7.00
2022-08-27T12:04:39.957Z,6.90
2022-08-27T12:07:18.440Z,7.20
2022-08-27T12:09:59.810Z,7.37
2022-08-27T12:12:35.730Z,7.27
2022-08-27T12:15:13.117Z,7.63
2022-08-27T12:17:55.877Z,6.80
2022-08-27T12:20:53.648Z,7.13
2022-08-27T12:23:51.036Z,6.80
2022-08-27T12:26:39.173Z,6.40
2022-08-27T12:29:29.167Z,6.07
2022-08-27T12:32:07.051Z,5.90
2022-08-27T12:34:47.173Z,6.13
2022-08-27T12:37:14.396Z,6.37
2022-08-27T12:39:44.462Z,6.33
2022-08-27T12:42:19.087Z,6.23
2022-08-27T12:44:45.976Z,6.47
2022-08-27T12:47:16.179Z,6.70
2022-08-27T12:49:55.820Z,6.20
2022-08-27T12:52:31.890Z,6.30
2022-08-27T12:55:36.301Z,5.87
2022-08-27T12:58:21.109Z,5.87
2022-08-27T13:01:11.995Z,5.83
2022-08-27T13:03:42.635Z,5.90
2022-08-27T13:06:19.908Z,5.87
2022-08-27T13:08:58.351Z,6.37
2022-08-27T13:11:33.918Z,5.17
2022-08-27T13:14:14.235Z,5.47
2022-08-27T13:17:05.706Z,5.80
2022-08-27T13:19:43.352Z,5.57
2022-08-27T13:22:10.670Z,5.80
2022-08-27T13:24:47.019Z,5.90
2022-08-27T13:27:14.128Z,6.20
2022-08-27T13:29:42.587Z,6.40
2022-08-27T13:32:14.095Z,7.17
2022-08-27T13:34:42.014Z,6.43
2022-08-27T13:37:24.470Z,6.37
2022-08-27T13:39:56.488Z,6.10
2022-08-27T13:42:25.096Z,6.63
2022-08-27T13:44:56.481Z,6.30
2022-08-27T13:47:26.140Z,6.23
2022-08-27T13:50:08.402Z,7.07
2022-08-27T13:52:57.617Z,6.50
2022-08-27T13:55:24.979Z,6.30
2022-08-27T13:57:52.310Z,6.23
2022-08-27T14:00:31.841Z,6.43
2022-08-27T14:03:01.428Z,6.90
2022-08-27T14:05:33.762Z,6.73
2022-08-27T14:08:13.347Z,6.97
2022-08-27T14:10:44.255Z,6.53
2022-08-27T14:13:24.278Z,6.47
2022-08-27T14:15:56.412Z,5.97
2022-08-27T14:18:57.922Z,6.40
2022-08-27T14:21:21.750Z,6.83
2022-08-27T14:23:49.061Z,6.93
2022-08-27T14:26:17.332Z,6.90
2022-08-27T14:28:45.085Z,6.43
2022-08-27T14:31:12.869Z,6.13
2022-08-27T14:33:40.067Z,6.00
2022-08-27T14:36:08.310Z,5.77
2022-08-27T14:38:39.540Z,6.17
2022-08-27T14:41:08.634Z,5.70
2022-08-27T14:43:36.428Z,9.13
2022-08-27T14:46:04.490Z,5.60
2022-08-27T14:48:33.960Z,5.50
2022-08-27T14:51:09.372Z,6.67
2022-08-27T14:53:36.242Z,6.20
2022-08-27T14:56:03.172Z,5.57
2022-08-27T14:58:30.016Z,5.57
2022-08-27T15:00:57.763Z,6.50
2022-08-27T15:03:28.270Z,7.17
2022-08-27T15:05:56.103Z,7.17
2022-08-27T15:08:27.626Z,6.80
2022-08-27T15:10:57.964Z,6.87
2022-08-27T15:13:25.150Z,7.30
2022-08-27T15:15:52.395Z,8.93
2022-08-27T15:18:19.719Z,8.70
2022-08-27T15:20:46.735Z,9.03
2022-08-27T15:23:15.599Z,8.60
2022-08-27T15:25:44.856Z,8.80
2022-08-27T15:28:12.014Z,8.27
2022-08-27T15:30:39.080Z,8.60
2022-08-27T15:33:06.637Z,9.27
2022-08-27T15:35:34.386Z,8.80
2022-08-27T15:38:01.868Z,9.03
2022-08-27T15:40:32.108Z,9.70
2022-08-27T15:43:04.214Z,9.57
2022-08-27T15:45:32.285Z,8.87
2022-08-27T15:48:00.239Z,10.33
2022-08-27T15:50:28.837Z,11.13
2022-08-27T15:52:59.784Z,11.53
2022-08-27T15:55:30.987Z,11.40
2022-08-27T15:57:58.866Z,11.50
2022-08-27T16:00:27.359Z,11.97
2022-08-27T16:02:55.187Z,11.40
2022-08-27T16:05:23.024Z,13.40
2022-08-27T16:07:50.114Z,12.33
2022-08-27T16:10:17.753Z,12.43
2022-08-27T16:12:44.877Z,12.80
2022-08-27T16:15:12.594Z,13.17
2022-08-27T16:17:40.110Z,13.23
2022-08-27T16:20:08.961Z,12.33
2022-08-27T16:22:37.263Z,12.50
2022-08-27T16:25:05.579Z,13.67
2022-08-27T16:27:33.330Z,12.27
2022-08-27T16:30:00.638Z,11.03
2022-08-27T16:32:31.469Z,11.57
2022-08-27T16:34:58.390Z,10.47
2022-08-27T16:37:25.475Z,10.10
2022-08-27T16:39:52.848Z,11.03
2022-08-27T16:42:20.259Z,8.93
2022-08-27T16:44:47.151Z,8.83
2022-08-27T16:47:14.093Z,8.30
2022-08-27T16:49:59.785Z,8.00
2022-08-27T16:52:27.006Z,8.00
2022-08-27T16:54:54.585Z,7.37
2022-08-27T16:57:21.526Z,7.17
2022-08-27T16:59:48.516Z,7.03
2022-08-27T17:02:30.586Z,7.63
2022-08-27T17:05:17.832Z,7.60
2022-08-27T17:07:49.313Z,7.40
2022-08-27T17:10:20.649Z,6.43
2022-08-27T17:12:48.282Z,7.33
2022-08-27T17:15:16.845Z,5.93
2022-08-27T17:17:44.995Z,5.80
